Time;durP1;ratioP1;P1;durP2;ratioP2;P2;SDS_P1;SDS_P2;PMS_P1;PMS_P2;Temp;Humidity;BMP_temperature;BMP_pressure;BME280_temperature;BME280_humidity;BME280_pressure;Samples;Min_cycle;Max_cycle;Signal;HPM_P1;HPM_P2
2022/03/19 00:00:13;;;;;;;33.67;23.02;;;;;;;9.33;53.20;102997.88;4148872;28;20061;-68
2022/03/19 00:02:19;;;;;;;33.47;23.67;;;;;;;9.33;52.96;102994.38;4147512;28;20073;-67
2022/03/19 00:04:21;;;;;;;30.10;20.90;;;;;;;9.28;53.11;102990.63;4157915;28;20435;-67
2022/03/19 00:06:25;;;;;;;31.13;21.05;;;;;;;9.34;53.08;102997.06;4162642;28;20048;-68
2022/03/19 00:08:28;;;;;;;32.15;22.52;;;;;;;9.23;53.13;102998.13;4152262;28;20161;-68
2022/03/19 00:10:31;;;;;;;32.17;22.77;;;;;;;9.30;53.13;102996.78;4162796;28;20045;-68
2022/03/19 00:12:34;;;;;;;29.77;20.90;;;;;;;9.23;53.21;103001.63;4163143;28;20041;-68
2022/03/19 00:14:42;;;;;;;28.55;21.35;;;;;;;9.30;52.81;102999.38;4154185;28;20049;-68
2022/03/19 00:16:46;;;;;;;32.20;21.77;;;;;;;9.42;52.30;102998.41;4150431;28;20037;-68
2022/03/19 00:18:48;;;;;;;32.22;21.65;;;;;;;9.30;52.73;103000.28;4160876;28;20084;-69
2022/03/19 00:20:51;;;;;;;32.97;21.23;;;;;;;9.24;52.82;102999.91;4152750;28;20076;-68
2022/03/19 00:22:55;;;;;;;33.40;22.60;;;;;;;9.24;52.66;103000.81;4162677;28;20037;-68
2022/03/19 00:24:59;;;;;;;35.03;22.48;;;;;;;9.21;52.62;103005.81;4151871;28;20069;-67
2022/03/19 00:27:02;;;;;;;32.58;23.05;;;;;;;9.19;52.99;103001.34;4153085;28;20045;-68
2022/03/19 00:29:05;;;;;;;38.97;24.25;;;;;;;9.22;52.41;102998.91;4147535;28;20038;-68
2022/03/19 00:31:08;;;;;;;31.80;22.60;;;;;;;9.15;53.03;102997.63;4137174;28;20097;-68
2022/03/19 00:33:12;;;;;;;34.70;21.92;;;;;;;9.20;52.64;103000.50;4151829;28;20408;-68
2022/03/19 00:35:16;;;;;;;34.28;23.88;;;;;;;9.09;53.13;102998.16;4153496;28;20043;-68
2022/03/19 00:37:19;;;;;;;32.80;22.60;;;;;;;9.13;52.50;102999.25;4151114;28;20042;-69
2022/03/19 00:39:24;;;;;;;39.95;24.15;;;;;;;9.06;52.96;103002.28;4157741;28;20120;-68
2022/03/19 00:41:26;;;;;;;33.72;23.02;;;;;;;9.06;52.78;102992.78;4138721;28;20113;-70
2022/03/19 00:43:29;;;;;;;36.78;22.65;;;;;;;9.09;52.79;102992.09;4147406;28;22017;-67
2022/03/19 00:45:32;;;;;;;38.33;23.52;;;;;;;9.08;53.00;102996.38;4165159;28;20499;-68
2022/03/19 00:47:35;;;;;;;36.92;23.08;;;;;;;9.19;52.47;102986.66;4156894;28;20061;-67
2022/03/19 00:49:39;;;;;;;33.25;23.63;;;;;;;9.05;52.97;103000.47;4150793;28;20447;-68
2022/03/19 00:51:42;;;;;;;34.58;22.98;;;;;;;9.06;52.70;102995.38;4151585;28;20057;-68
2022/03/19 00:53:44;;;;;;;34.95;22.92;;;;;;;8.96;53.11;102990.44;4146047;28;20042;-68
2022/03/19 00:55:48;;;;;;;33.78;23.17;;;;;;;9.09;52.82;102994.69;4166562;28;20041;-67
2022/03/19 00:57:51;;;;;;;34.07;22.63;;;;;;;9.05;52.88;103003.06;4166426;28;20503;-67
2022/03/19 00:59:55;;;;;;;33.00;24.10;;;;;;;9.15;52.53;102994.16;4166759;28;20561;-67
2022/03/19 01:01:58;;;;;;;39.33;25.05;;;;;;;9.06;52.64;102991.91;4163112;28;20522;-67
2022/03/19 01:04:01;;;;;;;34.03;22.05;;;;;;;9.02;52.82;102993.44;4165077;28;20056;-68
2022/03/19 01:06:03;;;;;;;38.60;24.48;;;;;;;9.12;52.53;102988.78;4161278;28;20049;-68
2022/03/19 01:08:06;;;;;;;33.28;23.63;;;;;;;9.07;52.54;102985.91;4163396;28;20151;-68
2022/03/19 01:10:11;;;;;;;35.58;23.05;;;;;;;9.05;52.45;102983.22;4166191;28;20060;-69
2022/03/19 01:12:15;;;;;;;34.53;24.00;;;;;;;9.11;52.48;102985.28;4146972;28;20415;-68
2022/03/19 01:14:18;;;;;;;31.23;22.15;;;;;;;9.00;52.61;103000.19;4161090;28;20037;-69
2022/03/19 01:16:21;;;;;;;33.97;23.00;;;;;;;9.14;52.23;102979.38;4162616;28;20041;-69
2022/03/19 01:18:23;;;;;;;34.33;23.98;;;;;;;9.11;52.51;102986.97;4165955;28;20041;-68
2022/03/19 01:20:26;;;;;;;39.50;24.45;;;;;;;9.03;52.44;102982.22;4133223;28;20516;-69
2022/03/19 01:22:29;;;;;;;32.55;22.38;;;;;;;8.92;52.83;102983.25;4149772;28;20046;-69
2022/03/19 01:24:32;;;;;;;37.63;25.10;;;;;;;9.03;52.74;102990.00;4161744;28;20045;-69
2022/03/19 01:26:35;;;;;;;36.75;23.90;;;;;;;9.02;52.67;102993.44;4143876;28;20046;-68
2022/03/19 01:28:39;;;;;;;36.53;24.30;;;;;;;9.14;52.22;102989.75;4148138;28;20576;-69
2022/03/19 01:30:42;;;;;;;36.30;25.30;;;;;;;9.01;52.56;102998.50;4132798;28;20499;-69
2022/03/19 01:32:46;;;;;;;36.13;23.83;;;;;;;9.06;52.53;102990.19;4150898;28;20100;-69
2022/03/19 01:34:49;;;;;;;34.42;24.90;;;;;;;8.98;52.69;102994.03;4161090;28;20114;-69
2022/03/19 01:36:53;;;;;;;39.08;25.40;;;;;;;9.07;52.67;102989.41;4154920;28;20445;-69
2022/03/19 01:38:56;;;;;;;35.47;24.35;;;;;;;8.94;52.79;102986.84;4165925;28;20373;-69
2022/03/19 01:40:59;;;;;;;38.53;24.27;;;;;;;9.00;52.99;102989.81;4161746;28;20041;-69
2022/03/19 01:43:03;;;;;;;33.65;22.75;;;;;;;8.99;52.77;102977.63;4165978;28;20503;-69
2022/03/19 01:45:11;;;;;;;38.20;23.35;;;;;;;8.94;53.13;102980.78;4152538;28;20399;-69
2022/03/19 01:47:13;;;;;;;38.20;25.65;;;;;;;8.92;53.26;102983.25;4162553;28;20053;-69
2022/03/19 01:49:16;;;;;;;38.13;23.58;;;;;;;8.99;52.86;102982.81;4149643;28;20053;-68
2022/03/19 01:51:18;;;;;;;38.90;25.02;;;;;;;8.88;52.79;102981.28;4149738;28;20077;-69
2022/03/19 01:53:21;;;;;;;43.53;25.38;;;;;;;8.90;53.04;102979.69;4149256;28;20329;-69
2022/03/19 01:55:26;;;;;;;38.42;23.67;;;;;;;9.01;52.67;102976.06;4165589;28;20053;-69
2022/03/19 01:57:34;;;;;;;37.30;25.27;;;;;;;8.88;53.35;102979.59;4166358;28;20495;-69
2022/03/19 01:59:38;;;;;;;32.53;22.95;;;;;;;8.89;53.29;102977.88;4163472;28;20060;-69
2022/03/19 02:01:44;;;;;;;35.28;23.65;;;;;;;8.81;53.31;102974.81;4150654;28;20041;-69
2022/03/19 02:03:47;;;;;;;34.08;22.90;;;;;;;8.87;53.05;102979.50;4156787;28;20107;-69
2022/03/19 02:05:51;;;;;;;37.33;22.70;;;;;;;8.85;53.06;102975.94;4164878;28;20051;-69
2022/03/19 02:07:54;;;;;;;36.35;22.75;;;;;;;8.81;53.25;102985.19;4165232;28;20111;-69
2022/03/19 02:09:58;;;;;;;36.22;22.75;;;;;;;8.86;53.54;102973.44;4150453;28;20054;-69
2022/03/19 02:12:02;;;;;;;32.28;21.50;;;;;;;8.81;53.31;102973.94;4158081;28;20167;-69
2022/03/19 02:14:04;;;;;;;35.67;22.63;;;;;;;8.78;53.30;102976.34;4143457;28;20047;-69
2022/03/19 02:16:08;;;;;;;39.53;23.67;;;;;;;8.84;53.29;102968.94;4165705;28;20107;-69
2022/03/19 02:18:12;;;;;;;34.58;23.17;;;;;;;8.74;53.55;102970.06;4162777;28;20042;-69
2022/03/19 02:20:15;;;;;;;33.90;21.92;;;;;;;8.79;53.26;102967.72;4167833;28;20051;-69
2022/03/19 02:22:18;;;;;;;37.85;24.50;;;;;;;8.75;53.62;102969.25;4159885;28;20080;-69
2022/03/19 02:26:43;;;;;;;37.80;23.63;;;;;;;8.73;53.62;102976.03;4160449;28;20033;-69
2022/03/19 02:28:46;;;;;;;35.47;22.83;;;;;;;8.74;53.30;102964.88;4153753;28;20080;-69
2022/03/19 02:30:49;;;;;;;36.85;23.60;;;;;;;8.79;53.36;102968.66;4151414;28;20046;-69
2022/03/19 02:32:52;;;;;;;30.58;22.08;;;;;;;8.65;53.79;102969.50;4143074;28;20065;-69
2022/03/19 02:34:55;;;;;;;39.05;23.67;;;;;;;8.63;53.98;102963.28;4153375;28;20069;-69
2022/03/19 02:36:58;;;;;;;35.80;23.65;;;;;;;8.73;53.56;102957.88;4158429;28;20060;-69
2022/03/19 02:39:16;;;;;;;37.88;23.15;;;;;;;8.79;53.18;102959.97;4163480;28;20067;-69
2022/03/19 02:41:22;;;;;;;35.65;25.30;;;;;;;8.72;53.87;102958.69;4162638;28;20043;-71
2022/03/19 02:43:24;;;;;;;39.25;22.48;;;;;;;8.70;53.68;102958.59;4160265;28;20439;-70
2022/03/19 02:45:28;;;;;;;39.67;23.00;;;;;;;8.63;54.10;102963.28;4160638;28;20385;-70
2022/03/19 02:47:30;;;;;;;34.95;23.65;;;;;;;8.56;53.89;102951.66;4148887;28;20046;-69
2022/03/19 02:49:34;;;;;;;35.85;23.52;;;;;;;8.61;53.95;102944.16;4157111;28;20042;-69
2022/03/19 02:51:38;;;;;;;40.15;24.02;;;;;;;8.69;53.56;102938.66;4159628;28;20462;-70
2022/03/19 02:53:40;;;;;;;34.50;22.08;;;;;;;8.66;53.78;102942.72;4156106;28;20045;-70
2022/03/19 02:55:44;;;;;;;38.17;23.95;;;;;;;8.73;53.13;102948.41;4158111;28;20447;-70
2022/03/19 02:57:48;;;;;;;36.35;22.48;;;;;;;8.67;54.08;102945.44;4131367;28;20050;-69
2022/03/19 02:59:51;;;;;;;37.03;24.60;;;;;;;8.73;53.79;102945.81;4149991;28;20042;-69
2022/03/19 03:01:56;;;;;;;39.35;23.42;;;;;;;8.70;53.69;102944.72;4148908;28;20046;-69
2022/03/19 03:03:59;;;;;;;34.42;22.77;;;;;;;8.60;53.86;102943.28;4152780;28;20057;-69
2022/03/19 03:06:03;;;;;;;37.03;24.42;;;;;;;8.76;53.52;102939.03;4163540;28;20502;-69
2022/03/19 03:08:05;;;;;;;34.75;23.55;;;;;;;8.65;53.59;102940.97;4144070;28;20042;-69
2022/03/19 03:10:10;;;;;;;35.00;22.88;;;;;;;8.65;53.55;102936.66;4150001;28;20038;-69
2022/03/19 03:12:12;;;;;;;34.30;23.70;;;;;;;8.52;54.15;102939.28;4148260;28;20042;-69
2022/03/19 03:14:19;;;;;;;38.92;25.08;;;;;;;8.54;54.11;102942.88;4154736;28;20077;-69
2022/03/19 03:16:25;;;;;;;36.83;23.55;;;;;;;8.47;54.06;102940.69;4156777;28;20033;-69
2022/03/19 03:18:29;;;;;;;39.38;23.70;;;;;;;8.47;54.22;102940.69;4160977;28;20042;-69
2022/03/19 03:20:32;;;;;;;40.38;23.33;;;;;;;8.51;54.22;102942.69;4130944;28;20046;-70
2022/03/19 03:22:36;;;;;;;36.03;24.15;;;;;;;8.51;54.08;102940.09;4142436;28;20049;-70
2022/03/19 03:24:39;;;;;;;37.15;23.52;;;;;;;8.43;54.52;102941.28;4154494;28;20096;-70
2022/03/19 03:26:44;;;;;;;33.00;22.05;;;;;;;8.63;53.92;102930.50;4155288;28;20395;-69
2022/03/19 03:28:47;;;;;;;34.65;22.48;;;;;;;8.45;54.15;102932.81;4136159;28;20500;-70
2022/03/19 03:30:51;;;;;;;36.15;21.65;;;;;;;8.47;54.25;102930.31;4164075;28;20052;-70
2022/03/19 03:32:54;;;;;;;38.08;24.17;;;;;;;8.39;54.34;102938.47;4148880;28;20068;-71
2022/03/19 03:34:56;;;;;;;38.72;24.80;;;;;;;8.47;53.93;102943.28;4151880;28;20042;-70
2022/03/19 03:36:59;;;;;;;38.78;24.00;;;;;;;8.36;54.69;102937.41;4149149;28;20060;-67
2022/03/19 03:39:02;;;;;;;36.58;22.13;;;;;;;8.31;54.51;102939.72;4153535;28;20091;-69
2022/03/19 03:41:05;;;;;;;31.00;21.13;;;;;;;8.38;54.66;102936.72;4160103;28;20545;-70
2022/03/19 03:43:08;;;;;;;41.20;23.10;;;;;;;8.30;54.58;102943.09;4141401;28;20152;-70
2022/03/19 03:45:11;;;;;;;37.10;22.58;;;;;;;8.25;54.98;102944.50;4132541;28;20050;-69
2022/03/19 03:47:15;;;;;;;35.00;22.45;;;;;;;8.28;55.00;102929.16;4149209;28;20042;-70
2022/03/19 03:49:18;;;;;;;42.10;23.00;;;;;;;8.43;54.34;102928.31;4163907;28;20046;-69
2022/03/19 03:51:21;;;;;;;41.13;23.40;;;;;;;8.26;54.77;102925.53;4159186;28;20435;-69
2022/03/19 03:53:25;;;;;;;38.30;22.40;;;;;;;8.43;54.32;102930.91;4139622;28;20524;-69
2022/03/19 03:55:28;;;;;;;44.20;24.08;;;;;;;8.26;54.72;102930.72;4162189;28;20045;-69
2022/03/19 03:57:31;;;;;;;38.25;23.25;;;;;;;8.18;55.02;102932.84;4146109;28;20605;-69
2022/03/19 03:59:33;;;;;;;35.50;23.52;;;;;;;8.31;54.51;102931.00;4160303;28;20042;-69
2022/03/19 04:01:36;;;;;;;32.60;21.98;;;;;;;8.32;54.53;102917.25;4163217;28;20053;-69
2022/03/19 04:03:41;;;;;;;36.35;22.17;;;;;;;8.28;54.60;102920.44;4148189;28;20119;-69
2022/03/19 04:05:43;;;;;;;35.53;22.50;;;;;;;8.35;54.61;102920.97;4162196;28;20045;-70
2022/03/19 04:07:46;;;;;;;37.03;23.13;;;;;;;8.31;54.54;102926.75;4147888;28;20416;-70
2022/03/19 04:09:49;;;;;;;33.30;22.75;;;;;;;8.21;54.60;102926.97;4149688;28;20034;-69
2022/03/19 04:11:52;;;;;;;38.22;23.15;;;;;;;8.15;55.20;102921.41;4159045;28;20041;-69
2022/03/19 04:13:54;;;;;;;42.90;23.20;;;;;;;8.17;55.02;102924.97;4156006;28;20129;-69
2022/03/19 04:15:58;;;;;;;40.28;22.23;;;;;;;8.20;55.03;102925.16;4152508;28;20049;-70
2022/03/19 04:18:01;;;;;;;38.42;23.77;;;;;;;8.29;54.45;102912.78;4162959;28;20037;-69
2022/03/19 04:20:07;;;;;;;33.40;21.92;;;;;;;8.39;54.10;102912.56;4163054;28;20554;-69
2022/03/19 04:22:10;;;;;;;33.47;22.13;;;;;;;8.19;54.70;102913.00;4165012;28;20045;-69
2022/03/19 04:24:13;;;;;;;37.20;22.10;;;;;;;8.21;55.01;102917.47;4144796;28;20111;-69
2022/03/19 04:26:16;;;;;;;35.92;23.48;;;;;;;8.20;54.93;102914.78;4152318;28;20558;-69
2022/03/19 04:28:18;;;;;;;36.60;24.95;;;;;;;8.12;54.82;102903.03;4158313;28;20503;-69
2022/03/19 04:30:23;;;;;;;38.65;22.55;;;;;;;8.23;54.24;102904.63;4162285;28;20041;-71
2022/03/19 04:32:25;;;;;;;34.60;23.65;;;;;;;8.24;54.76;102905.53;4148483;28;20050;-69
2022/03/19 04:34:28;;;;;;;36.90;23.58;;;;;;;8.08;54.77;102906.25;4152909;28;20498;-69
2022/03/19 04:36:36;;;;;;;39.88;24.05;;;;;;;8.21;54.41;102896.75;4144088;28;20042;-69
2022/03/19 04:38:40;;;;;;;36.95;24.27;;;;;;;8.20;54.62;102894.06;4144556;28;20496;-70
2022/03/19 04:40:44;;;;;;;36.58;23.40;;;;;;;8.15;54.70;102895.50;4151852;28;20416;-70
2022/03/19 04:42:47;;;;;;;37.50;22.75;;;;;;;8.21;54.71;102890.69;4161726;28;20049;-70
2022/03/19 04:44:50;;;;;;;33.78;21.15;;;;;;;8.09;54.71;102884.72;4133986;28;20421;-70
2022/03/19 04:46:52;;;;;;;36.70;23.30;;;;;;;8.33;54.55;102891.44;4149407;28;20099;-70
2022/03/19 04:48:56;;;;;;;33.05;21.55;;;;;;;8.20;54.28;102891.47;4162962;28;20115;-70
2022/03/19 04:50:59;;;;;;;37.58;23.77;;;;;;;8.17;54.60;102884.41;4161829;28;20106;-69
2022/03/19 04:53:06;;;;;;;37.55;23.80;;;;;;;8.11;54.75;102893.50;4156235;28;20423;-69
2022/03/19 04:55:11;;;;;;;33.97;22.63;;;;;;;8.12;54.83;102896.19;4157464;28;20419;-70
2022/03/19 04:57:14;;;;;;;37.42;24.58;;;;;;;8.17;55.06;102891.28;4147314;28;20093;-70
2022/03/19 04:59:17;;;;;;;36.63;24.05;;;;;;;8.06;54.83;102894.88;4155939;28;20046;-70
2022/03/19 05:01:21;;;;;;;37.20;25.40;;;;;;;8.07;54.87;102894.97;4159068;28;20392;-70
2022/03/19 05:03:24;;;;;;;35.45;24.67;;;;;;;8.07;54.77;102891.50;4162816;28;20047;-70
2022/03/19 05:05:27;;;;;;;33.92;22.10;;;;;;;8.11;54.87;102890.91;4131039;28;20500;-69
2022/03/19 05:07:35;;;;;;;36.08;23.67;;;;;;;8.01;55.60;102898.06;4136065;28;20053;-70
2022/03/19 05:11:59;;;;;;;38.05;23.50;;;;;;;8.08;54.78;102890.72;4147299;28;20050;-69
2022/03/19 05:14:03;;;;;;;32.25;23.48;;;;;;;8.11;54.53;102888.31;4135851;28;20089;-70
2022/03/19 05:16:08;;;;;;;34.53;23.30;;;;;;;8.31;53.64;102882.69;4154607;28;20053;-70
2022/03/19 05:18:11;;;;;;;37.40;23.35;;;;;;;8.23;54.43;102883.88;4154093;28;20048;-69
2022/03/19 05:20:14;;;;;;;37.97;23.42;;;;;;;8.20;54.18;102881.13;4162884;28;20395;-69
2022/03/19 05:22:17;;;;;;;39.65;23.63;;;;;;;8.09;54.77;102889.88;4160273;28;20519;-70
2022/03/19 05:24:20;;;;;;;35.40;23.13;;;;;;;8.07;54.41;102883.72;4151668;28;20577;-69
2022/03/19 05:26:24;;;;;;;33.33;22.08;;;;;;;8.14;54.64;102880.72;4163208;28;20037;-69
2022/03/19 05:28:27;;;;;;;35.53;23.20;;;;;;;8.03;54.58;102887.81;4150966;28;20104;-69
2022/03/19 05:30:30;;;;;;;33.53;21.92;;;;;;;8.18;54.46;102885.31;4162399;28;20141;-69
2022/03/19 05:32:33;;;;;;;44.25;24.70;;;;;;;8.21;54.34;102886.38;4161583;28;20042;-69
2022/03/19 05:34:36;;;;;;;38.90;22.63;;;;;;;8.08;54.80;102888.13;4149878;28;20038;-69
2022/03/19 05:36:38;;;;;;;33.30;22.63;;;;;;;8.11;54.41;102877.94;4132137;28;20038;-69
2022/03/19 05:38:41;;;;;;;32.72;22.58;;;;;;;8.04;54.54;102884.41;4154298;28;20091;-70
2022/03/19 05:40:44;;;;;;;35.67;22.33;;;;;;;8.07;54.31;102886.31;4164102;28;20410;-70
2022/03/19 05:42:48;;;;;;;37.17;23.17;;;;;;;8.12;54.12;102883.22;4146906;28;20045;-70
2022/03/19 05:44:51;;;;;;;35.92;22.02;;;;;;;8.16;54.38;102879.13;4158350;28;20045;-70
2022/03/19 05:46:54;;;;;;;29.10;20.88;;;;;;;8.03;54.48;102875.75;4153222;28;20038;-69
2022/03/19 05:48:57;;;;;;;32.42;21.63;;;;;;;8.12;53.95;102879.72;4151854;28;20495;-69
2022/03/19 05:51:01;;;;;;;38.35;22.05;;;;;;;8.21;54.07;102881.19;4155438;28;20042;-69
2022/03/19 05:53:10;;;;;;;30.85;21.45;;;;;;;8.26;53.35;102876.31;4161579;28;20531;-70
2022/03/19 05:55:14;;;;;;;32.92;21.02;;;;;;;8.30;53.63;102886.06;4164477;28;20041;-69
2022/03/19 05:57:17;;;;;;;36.40;20.75;;;;;;;8.31;52.70;102881.78;4163686;28;20045;-71
2022/03/19 05:59:21;;;;;;;29.13;19.90;;;;;;;8.31;52.60;102877.50;4165137;28;20403;-69
2022/03/19 06:01:26;;;;;;;31.50;19.55;;;;;;;8.28;53.16;102890.28;4157985;28;20091;-70
2022/03/19 06:03:31;;;;;;;34.80;19.85;;;;;;;8.24;52.71;102880.50;4160308;28;20113;-69
2022/03/19 06:05:34;;;;;;;31.13;18.58;;;;;;;8.43;52.00;102879.06;4160907;28;20045;-69
2022/03/19 06:07:37;;;;;;;25.17;16.52;;;;;;;8.38;52.33;102878.75;4150499;28;20114;-70
2022/03/19 06:09:40;;;;;;;25.63;16.83;;;;;;;8.39;51.82;102877.97;4148172;28;20053;-70
2022/03/19 06:11:44;;;;;;;30.85;17.20;;;;;;;8.26;52.09;102878.00;4161956;28;20049;-70
2022/03/19 06:13:47;;;;;;;23.48;15.50;;;;;;;8.38;51.24;102861.53;4163067;28;20050;-70
2022/03/19 06:15:51;;;;;;;22.65;12.55;;;;;;;8.52;50.38;102867.59;4164854;28;20103;-70
2022/03/19 06:17:53;;;;;;;24.73;13.00;;;;;;;8.39;50.82;102870.19;4165904;28;20435;-70
2022/03/19 06:19:57;;;;;;;24.17;12.45;;;;;;;8.41;50.75;102876.38;4162215;28;20379;-70
2022/03/19 06:22:00;;;;;;;22.77;12.65;;;;;;;8.37;51.05;102875.28;4160207;28;20091;-70
2022/03/19 06:24:05;;;;;;;23.70;12.20;;;;;;;8.48;50.95;102883.75;4165410;28;20045;-70
2022/03/19 06:26:08;;;;;;;25.58;12.85;;;;;;;8.52;50.58;102877.06;4165449;28;20046;-70
2022/03/19 06:28:12;;;;;;;22.48;12.88;;;;;;;8.44;51.14;102875.66;4165765;28;20045;-70
2022/03/19 06:30:14;;;;;;;21.65;10.73;;;;;;;8.36;51.56;102870.00;4165607;28;20046;-70
2022/03/19 06:32:20;;;;;;;23.77;11.75;;;;;;;8.45;51.46;102870.59;4162173;28;20037;-70
2022/03/19 06:34:23;;;;;;;22.55;12.68;;;;;;;8.43;51.69;102866.13;4165540;28;20049;-70
2022/03/19 06:38:46;;;;;;;23.17;12.48;;;;;;;8.41;51.90;102867.69;4165597;28;20045;-70
2022/03/19 06:40:49;;;;;;;24.02;13.60;;;;;;;8.41;52.04;102865.09;4146987;28;20050;-69
2022/03/19 06:42:51;;;;;;;23.55;12.60;;;;;;;8.46;51.62;102868.94;4165119;28;20419;-69
2022/03/19 06:44:54;;;;;;;24.33;13.02;;;;;;;8.43;52.10;102867.00;4161563;28;20053;-69
2022/03/19 06:46:57;;;;;;;20.50;12.82;;;;;;;8.39;51.90;102865.91;4165258;28;20045;-70
2022/03/19 06:49:01;;;;;;;27.33;13.48;;;;;;;8.38;52.32;102871.00;4165450;28;20064;-70
2022/03/19 06:51:03;;;;;;;26.90;14.57;;;;;;;8.51;51.90;102854.53;4143988;28;20439;-70
2022/03/19 06:53:06;;;;;;;21.23;12.90;;;;;;;8.41;51.99;102862.50;4171453;28;20041;-70
2022/03/19 06:55:09;;;;;;;26.67;13.43;;;;;;;8.23;53.12;102870.94;4168872;28;20049;-69
2022/03/19 06:57:12;;;;;;;29.27;14.52;;;;;;;8.48;52.41;102864.72;4156827;28;20454;-70
2022/03/19 06:59:15;;;;;;;26.17;13.88;;;;;;;8.38;52.56;102858.94;4165131;28;20499;-70
2022/03/19 07:01:17;;;;;;;20.70;13.50;;;;;;;8.45;52.57;102865.41;4147660;28;20080;-70
2022/03/19 07:03:21;;;;;;;30.48;15.68;;;;;;;8.50;52.14;102858.84;4164777;28;20115;-70
2022/03/19 07:05:27;;;;;;;27.65;12.82;;;;;;;8.50;52.47;102863.13;4147119;28;20133;-70
2022/03/19 07:07:30;;;;;;;29.08;15.93;;;;;;;8.55;52.16;102860.00;4165112;28;20079;-70
2022/03/19 07:09:33;;;;;;;30.25;14.57;;;;;;;8.69;51.73;102859.97;4156655;28;20038;-70
2022/03/19 07:11:36;;;;;;;27.33;16.30;;;;;;;8.62;51.90;102856.09;4164975;28;20072;-70
2022/03/19 07:13:39;;;;;;;27.13;16.33;;;;;;;8.56;52.21;102859.19;4164592;28;20533;-69
2022/03/19 07:15:42;;;;;;;32.92;17.63;;;;;;;8.60;52.44;102856.78;4146909;28;20057;-69
2022/03/19 07:17:45;;;;;;;27.90;17.05;;;;;;;8.64;52.03;102857.06;4159125;28;20117;-69
2022/03/19 07:19:47;;;;;;;26.95;16.08;;;;;;;8.75;51.78;102857.75;4164780;28;20495;-68
2022/03/19 07:21:52;;;;;;;30.33;17.75;;;;;;;8.79;51.68;102859.72;4147310;28;20486;-69
2022/03/19 07:23:54;;;;;;;30.77;18.52;;;;;;;8.77;51.48;102856.13;4164402;28;20045;-69
2022/03/19 07:25:59;;;;;;;25.75;17.70;;;;;;;8.76;52.02;102856.94;4164416;28;20041;-69
2022/03/19 07:28:03;;;;;;;;;;;;;;;8.78;51.91;102846.66;4141781;28;20046;-69
2022/03/19 07:30:07;;;;;;;32.92;19.50;;;;;;;9.02;50.76;102865.38;4164608;28;19967;-69
2022/03/19 07:32:10;;;;;;;29.73;18.63;;;;;;;8.86;51.48;102848.00;4164283;28;20038;-69
2022/03/19 07:34:13;;;;;;;26.98;18.13;;;;;;;8.75;51.92;102860.34;4161165;28;20513;-69
2022/03/19 07:36:16;;;;;;;27.60;18.63;;;;;;;8.87;52.01;102871.44;4172671;28;20359;-69
2022/03/19 07:38:20;;;;;;;28.60;19.08;;;;;;;9.09;50.43;102862.34;4173044;28;20457;-70
2022/03/19 07:42:40;;;;;;;28.77;18.52;;;;;;;9.03;51.27;102864.56;4129461;28;20141;-69
2022/03/19 07:44:42;;;;;;;31.40;18.60;;;;;;;9.03;50.91;102849.00;4148203;28;20133;-69
2022/03/19 07:46:46;;;;;;;36.85;18.40;;;;;;;9.12;50.29;102838.28;4152778;28;20042;-70
2022/03/19 07:48:49;;;;;;;29.80;17.80;;;;;;;9.06;50.76;102847.47;4163927;28;20033;-70
2022/03/19 07:50:52;;;;;;;24.67;16.38;;;;;;;9.26;50.19;102845.16;4151262;28;20116;-70
2022/03/19 07:52:55;;;;;;;28.98;16.13;;;;;;;9.23;49.90;102837.22;4150415;28;20034;-67
2022/03/19 07:55:00;;;;;;;27.30;16.98;;;;;;;9.11;50.48;102839.06;4159510;28;20046;-67
2022/03/19 07:57:03;;;;;;;23.80;13.57;;;;;;;9.37;49.38;102832.81;4155485;28;20041;-67
2022/03/19 07:59:06;;;;;;;26.48;15.48;;;;;;;9.34;49.24;102828.31;4145420;28;20041;-67
2022/03/19 08:01:09;;;;;;;28.67;15.98;;;;;;;9.29;49.47;102829.78;4151906;28;20045;-68
2022/03/19 08:03:12;;;;;;;26.45;15.95;;;;;;;9.42;48.86;102834.84;4163432;28;20041;-67
2022/03/19 08:05:15;;;;;;;24.63;14.15;;;;;;;9.49;48.71;102835.19;4154917;28;20168;-66
2022/03/19 08:07:19;;;;;;;22.88;13.75;;;;;;;9.46;48.84;102837.63;4169975;28;20499;-66
2022/03/19 08:09:23;;;;;;;26.25;15.02;;;;;;;9.48;48.75;102844.69;4169953;28;20115;-68
2022/03/19 08:11:27;;;;;;;24.42;13.80;;;;;;;9.50;48.46;102840.47;4153850;28;20065;-66
2022/03/19 08:13:30;;;;;;;26.02;13.93;;;;;;;9.49;48.70;102841.31;4163217;28;20049;-67
2022/03/19 08:15:34;;;;;;;21.90;13.40;;;;;;;9.69;47.88;102842.41;4140220;28;20097;-66
2022/03/19 08:17:37;;;;;;;20.38;13.93;;;;;;;9.73;48.23;102846.09;4163499;28;20064;-66
2022/03/19 08:19:42;;;;;;;24.05;13.50;;;;;;;9.76;47.63;102844.53;4146177;28;20141;-66
2022/03/19 08:22:04;;;;;;;23.95;13.15;;;;;;;9.77;47.82;102835.06;4129494;28;20133;-66
2022/03/19 08:24:08;;;;;;;24.60;14.45;;;;;;;9.90;47.63;102844.41;4155831;28;20041;-66
2022/03/19 08:26:11;;;;;;;23.58;14.18;;;;;;;9.95;47.37;102843.88;4151771;28;20120;-66
2022/03/19 08:28:15;;;;;;;23.75;14.27;;;;;;;9.83;48.10;102839.69;4154261;28;20037;-66
2022/03/19 08:30:18;;;;;;;25.07;13.33;;;;;;;10.03;47.42;102839.13;4163291;28;20449;-66
2022/03/19 08:32:22;;;;;;;24.23;13.75;;;;;;;10.11;46.86;102837.81;4148702;28;20304;-67
2022/03/19 08:34:25;;;;;;;24.73;14.45;;;;;;;10.19;46.33;102845.13;4143436;28;20050;-66
2022/03/19 08:36:28;;;;;;;25.45;13.43;;;;;;;10.13;46.55;102833.59;4151799;28;20096;-66
2022/03/19 08:40:51;;;;;;;23.75;14.52;;;;;;;10.28;46.02;102835.25;4156711;28;20041;-66
2022/03/19 08:42:53;;;;;;;24.02;14.80;;;;;;;10.38;44.85;102834.97;4138956;28;20109;-66
2022/03/19 08:44:58;;;;;;;22.75;13.45;;;;;;;10.29;45.07;102824.94;4154939;28;20061;-66
2022/03/19 08:47:00;;;;;;;24.75;14.15;;;;;;;10.43;44.31;102827.41;4154360;28;20037;-66
2022/03/19 08:49:04;;;;;;;27.60;13.98;;;;;;;10.48;44.57;102831.13;4153395;28;20080;-65
2022/03/19 08:53:27;;;;;;;22.60;13.98;;;;;;;10.50;44.14;102820.78;4159308;28;20045;-66
2022/03/19 08:55:30;;;;;;;20.85;12.93;;;;;;;10.60;43.79;102823.06;4163099;28;20041;-66
2022/03/19 08:57:32;;;;;;;24.13;14.27;;;;;;;10.57;43.86;102822.91;4152015;28;20077;-66
2022/03/19 08:59:35;;;;;;;20.13;12.43;;;;;;;10.60;44.13;102813.56;4147247;28;20391;-68
2022/03/19 09:01:40;;;;;;;21.10;13.45;;;;;;;10.67;44.89;102809.56;4157158;28;20041;-68
2022/03/19 09:03:43;;;;;;;21.67;13.05;;;;;;;10.87;42.91;102809.72;4152970;28;20096;-68
2022/03/19 09:05:51;;;;;;;20.63;11.85;;;;;;;10.93;43.93;102810.00;4163414;28;20034;-69
2022/03/19 09:07:54;;;;;;;21.38;12.02;;;;;;;11.15;41.97;102798.97;4157349;28;20042;-68
2022/03/19 09:09:57;;;;;;;15.55;10.10;;;;;;;11.05;42.82;102795.00;4153402;28;20042;-67
2022/03/19 09:12:10;;;;;;;17.05;11.50;;;;;;;11.13;42.17;102787.59;4166238;28;20076;-66
2022/03/19 09:14:13;;;;;;;17.67;10.85;;;;;;;11.34;41.09;102791.22;4146255;28;20042;-68
2022/03/19 09:16:16;;;;;;;15.88;10.63;;;;;;;11.31;41.61;102780.66;4164697;28;20037;-68
2022/03/19 09:18:21;;;;;;;21.38;11.57;;;;;;;11.17;43.46;102774.78;4164886;28;20064;-68
2022/03/19 09:20:24;;;;;;;;;;;;;;;11.47;42.59;102776.19;4157990;28;20042;-68
2022/03/19 09:22:27;;;;;;;18.23;11.52;;;;;;;11.68;40.46;102779.84;4164158;28;19921;-68
2022/03/19 09:24:29;;;;;;;21.40;11.18;;;;;;;11.61;40.63;102775.16;4154056;28;20403;-68
2022/03/19 09:26:32;;;;;;;18.88;11.15;;;;;;;11.60;41.42;102775.09;4165127;28;20539;-69
2022/03/19 09:28:35;;;;;;;23.55;12.13;;;;;;;11.77;40.89;102776.75;4139803;28;20046;-68
2022/03/19 09:30:37;;;;;;;19.15;11.70;;;;;;;11.76;41.01;102767.16;4142292;28;20050;-69
2022/03/19 09:32:41;;;;;;;20.42;11.95;;;;;;;11.78;41.36;102762.88;4157563;28;20499;-69
2022/03/19 09:34:49;;;;;;;22.67;12.95;;;;;;;11.79;40.54;102764.69;4166656;28;20053;-69
2022/03/19 09:36:51;;;;;;;22.17;12.05;;;;;;;11.86;40.76;102763.28;4141088;28;20053;-70
2022/03/19 09:38:54;;;;;;;20.60;10.90;;;;;;;11.76;40.49;102754.13;4134528;28;20046;-69
2022/03/19 09:40:58;;;;;;;21.45;11.63;;;;;;;11.81;40.42;102737.00;4162119;28;20200;-69